createdAt,value
2023-04-09T00:03:46.137Z,5.79
2023-04-09T00:07:48.245Z,5.77
2023-04-09T00:11:50.321Z,5.73
2023-04-09T00:15:52.362Z,5.73
2023-04-09T00:19:54.410Z,5.78
2023-04-09T00:23:56.369Z,5.82
2023-04-09T00:27:58.914Z,5.85
2023-04-09T00:32:00.981Z,5.83
2023-04-09T00:36:03.091Z,5.83
2023-04-09T00:40:06.075Z,5.84
2023-04-09T00:44:08.125Z,5.80
2023-04-09T00:48:11.560Z,5.72
2023-04-09T00:52:13.559Z,5.61
2023-04-09T00:56:17.342Z,5.57
2023-04-09T01:00:19.367Z,5.51
2023-04-09T01:04:22.844Z,5.49
2023-04-09T01:08:46.569Z,5.45
2023-04-09T01:13:07.225Z,5.42
2023-04-09T01:17:32.124Z,5.30
2023-04-09T01:21:34.684Z,5.30
2023-04-09T01:26:04.551Z,5.29
2023-04-09T01:30:18.717Z,5.21
2023-04-09T01:34:22.137Z,5.11
2023-04-09T01:38:26.293Z,5.11
2023-04-09T01:42:29.400Z,5.10
2023-04-09T01:46:33.475Z,5.14
2023-04-09T01:50:35.691Z,5.11
2023-04-09T01:54:37.904Z,5.21
2023-04-09T01:58:40.919Z,5.22
2023-04-09T02:02:54.754Z,5.28
2023-04-09T02:07:12.993Z,5.23
2023-04-09T02:11:16.260Z,5.11
2023-04-09T02:15:21.543Z,5.11
2023-04-09T02:19:23.660Z,5.12
2023-04-09T02:23:27.012Z,5.21
2023-04-09T02:27:29.096Z,5.28
2023-04-09T02:31:31.231Z,5.30
2023-04-09T02:35:33.670Z,5.31
2023-04-09T02:39:35.827Z,5.29
2023-04-09T02:43:38.086Z,5.30
2023-04-09T02:47:40.205Z,5.31
2023-04-09T02:51:42.236Z,5.28
2023-04-09T02:55:44.236Z,5.32
2023-04-09T02:59:46.524Z,5.45
2023-04-09T03:03:48.705Z,5.45
2023-04-09T03:07:51.067Z,5.44
2023-04-09T03:11:53.122Z,5.45
2023-04-09T03:15:55.367Z,5.42
2023-04-09T03:19:57.703Z,5.48
2023-04-09T03:24:00.273Z,5.45
2023-04-09T03:28:03.319Z,5.42
2023-04-09T03:32:13.275Z,5.44
2023-04-09T03:36:15.488Z,5.47
2023-04-09T03:40:31.555Z,5.48
2023-04-09T03:44:33.622Z,5.43
2023-04-09T03:48:44.658Z,5.40
2023-04-09T03:52:47.370Z,5.38
2023-04-09T03:56:49.439Z,5.34
2023-04-09T04:00:56.504Z,5.33
2023-04-09T04:05:11.626Z,5.28
2023-04-09T04:09:19.942Z,5.28
2023-04-09T04:13:27.818Z,5.30
2023-04-09T04:17:32.572Z,5.25
2023-04-09T04:21:36.337Z,5.27
2023-04-09T04:25:42.030Z,5.34
2023-04-09T04:29:47.402Z,5.39
2023-04-09T04:34:04.839Z,5.35
2023-04-09T04:38:07.082Z,5.27
2023-04-09T04:42:12.790Z,5.28
2023-04-09T04:46:15.261Z,5.28
2023-04-09T04:50:17.521Z,5.31
2023-04-09T04:54:29.025Z,5.34
2023-04-09T04:58:33.175Z,5.39
2023-04-09T05:02:37.126Z,5.44
2023-04-09T05:06:52.621Z,5.51
2023-04-09T05:10:58.091Z,5.52
2023-04-09T05:15:07.992Z,5.55
2023-04-09T05:19:12.223Z,5.59
2023-04-09T05:23:14.420Z,5.56
2023-04-09T05:27:22.119Z,5.55
2023-04-09T05:31:26.186Z,5.56
2023-04-09T05:35:38.749Z,5.65
2023-04-09T05:39:40.931Z,5.72
2023-04-09T05:43:43.881Z,5.82
2023-04-09T05:47:46.331Z,5.85
2023-04-09T05:51:53.843Z,5.94
2023-04-09T05:56:01.371Z,5.93
2023-04-09T06:00:15.664Z,5.97
2023-04-09T06:04:22.568Z,6.09
2023-04-09T06:08:24.820Z,6.22
2023-04-09T06:12:26.801Z,6.49
2023-04-09T06:16:28.818Z,6.69
2023-04-09T06:20:31.398Z,6.99
2023-04-09T06:24:33.497Z,7.19
2023-04-09T06:28:36.509Z,7.32
2023-04-09T06:32:51.164Z,7.52
2023-04-09T06:36:56.035Z,8.41
2023-04-09T06:40:57.954Z,9.23
2023-04-09T06:45:00.199Z,9.89
2023-04-09T06:49:02.216Z,9.95
2023-04-09T06:53:06.900Z,9.86
2023-04-09T06:57:08.957Z,10.20
2023-04-09T07:01:11.862Z,10.72
2023-04-09T07:05:13.928Z,10.77
2023-04-09T07:09:17.550Z,10.47
2023-04-09T07:13:19.899Z,10.11
2023-04-09T07:17:21.968Z,10.04
2023-04-09T07:21:24.014Z,9.89
2023-04-09T07:25:26.405Z,9.97
2023-04-09T07:29:28.401Z,10.38
2023-04-09T07:33:30.852Z,10.68
2023-04-09T07:37:33.155Z,10.85
2023-04-09T07:41:35.629Z,10.95
2023-04-09T07:45:37.624Z,11.02
2023-04-09T07:49:39.998Z,10.89
2023-04-09T07:53:42.135Z,10.88
2023-04-09T07:57:45.213Z,10.97
2023-04-09T08:01:47.360Z,11.09
2023-04-09T08:05:49.438Z,11.12
2023-04-09T08:09:51.564Z,11.13
2023-04-09T08:13:54.248Z,11.70
2023-04-09T08:17:57.017Z,11.76
2023-04-09T08:21:59.213Z,11.77
2023-04-09T08:26:01.336Z,11.79
2023-04-09T08:30:04.404Z,11.97
2023-04-09T08:34:07.179Z,12.05
2023-04-09T08:38:09.217Z,12.08
2023-04-09T08:42:12.667Z,12.09
2023-04-09T08:46:18.607Z,11.93
2023-04-09T08:50:21.082Z,11.72
2023-04-09T08:54:26.608Z,11.57
2023-04-09T08:58:28.753Z,11.61
2023-04-09T09:02:31.797Z,11.72
2023-04-09T09:06:38.927Z,11.90
2023-04-09T09:10:43.827Z,11.75
2023-04-09T09:14:46.409Z,11.64
2023-04-09T09:18:48.400Z,11.69
2023-04-09T09:22:54.824Z,11.89
2023-04-09T09:26:58.807Z,12.24
2023-04-09T09:31:09.107Z,12.30
2023-04-09T09:35:11.444Z,12.18
2023-04-09T09:39:14.931Z,12.29
2023-04-09T09:43:17.114Z,12.58
2023-04-09T09:47:19.869Z,12.93
2023-04-09T09:51:27.686Z,13.20
2023-04-09T09:55:43.568Z,13.29
2023-04-09T10:00:00.516Z,13.39
2023-04-09T10:04:05.762Z,13.28
2023-04-09T10:08:08.075Z,13.31
2023-04-09T10:12:11.980Z,13.36
2023-04-09T10:16:14.366Z,13.44
2023-04-09T10:20:26.150Z,13.58
2023-04-09T10:24:28.397Z,13.70
2023-04-09T10:28:31.158Z,13.70
2023-04-09T10:32:36.818Z,13.69
2023-04-09T10:36:38.998Z,13.75
2023-04-09T10:40:49.665Z,13.90
2023-04-09T10:45:11.582Z,14.05
2023-04-09T10:49:19.607Z,14.15
2023-04-09T10:53:23.966Z,14.16
2023-04-09T10:57:26.436Z,14.02
2023-04-09T11:01:28.668Z,14.00
2023-04-09T11:05:33.933Z,13.85
2023-04-09T11:09:36.493Z,13.77
2023-04-09T11:13:41.614Z,13.94
2023-04-09T11:17:47.241Z,13.89
2023-04-09T11:21:49.439Z,13.83
2023-04-09T11:25:52.740Z,14.00
2023-04-09T11:29:57.956Z,14.25
2023-04-09T11:34:00.119Z,14.20
2023-04-09T11:38:07.081Z,14.20
2023-04-09T11:42:14.095Z,14.26
2023-04-09T11:46:16.495Z,14.20
2023-04-09T11:50:19.608Z,14.19
2023-04-09T11:54:21.841Z,14.17
2023-04-09T11:58:26.267Z,14.14
2023-04-09T12:02:30.023Z,14.33
2023-04-09T12:06:32.227Z,14.22
2023-04-09T12:10:36.220Z,14.33
2023-04-09T12:14:38.312Z,14.36
2023-04-09T12:18:41.119Z,14.41
2023-04-09T12:22:43.524Z,14.32
2023-04-09T12:26:46.800Z,14.42
2023-04-09T12:30:50.872Z,14.42
2023-04-09T12:34:52.890Z,14.32
2023-04-09T12:38:54.916Z,14.34
2023-04-09T12:42:56.976Z,14.34
2023-04-09T12:46:59.243Z,14.36
2023-04-09T12:51:01.932Z,14.25
2023-04-09T12:55:05.740Z,14.14
2023-04-09T12:59:07.792Z,14.21
2023-04-09T13:03:09.957Z,14.23
2023-04-09T13:07:12.920Z,14.00
2023-04-09T13:11:14.975Z,13.75
2023-04-09T13:15:17.271Z,13.64
2023-04-09T13:19:19.595Z,13.55
2023-04-09T13:23:21.658Z,13.20
2023-04-09T13:27:23.711Z,12.95
2023-04-09T13:31:25.955Z,13.04
2023-04-09T13:35:28.126Z,13.24
2023-04-09T13:39:30.491Z,13.60
2023-04-09T13:43:32.569Z,13.89
2023-04-09T13:47:34.698Z,14.07
2023-04-09T13:51:36.809Z,14.21
2023-04-09T13:55:39.772Z,14.24
2023-04-09T13:59:42.474Z,14.31
2023-04-09T14:03:44.887Z,14.32
2023-04-09T14:07:47.015Z,14.22
2023-04-09T14:11:49.510Z,14.20
2023-04-09T14:15:51.552Z,14.02
2023-04-09T14:19:53.531Z,14.01
2023-04-09T14:23:55.991Z,13.99
2023-04-09T14:27:58.973Z,13.98
2023-04-09T14:32:01.347Z,13.89
2023-04-09T14:36:03.689Z,13.73
2023-04-09T14:40:06.932Z,13.61
2023-04-09T14:44:09.160Z,13.56
2023-04-09T14:48:11.200Z,13.54
2023-04-09T14:52:13.220Z,13.37
2023-04-09T14:56:15.395Z,13.15
2023-04-09T15:00:17.434Z,12.93
2023-04-09T15:04:19.561Z,12.58
2023-04-09T15:08:21.729Z,12.44
2023-04-09T15:12:23.772Z,12.37
2023-04-09T15:16:27.620Z,12.35
2023-04-09T15:20:29.658Z,12.27
2023-04-09T15:24:31.820Z,12.40
2023-04-09T15:28:33.812Z,12.50
2023-04-09T15:32:36.167Z,12.60
2023-04-09T15:36:38.204Z,12.61
2023-04-09T15:40:41.365Z,12.69
2023-04-09T15:44:43.358Z,12.74
2023-04-09T15:48:45.355Z,12.77
2023-04-09T15:52:47.410Z,12.82
2023-04-09T15:56:49.815Z,12.86
2023-04-09T16:00:51.809Z,12.84
2023-04-09T16:04:53.824Z,12.87
2023-04-09T16:08:56.880Z,12.88
2023-04-09T16:12:58.903Z,12.82
2023-04-09T16:17:01.179Z,12.80
2023-04-09T16:21:04.241Z,12.83
2023-04-09T16:25:06.755Z,12.79
2023-04-09T16:29:09.391Z,12.71
2023-04-09T16:33:11.917Z,12.64
2023-04-09T16:37:13.932Z,12.66
2023-04-09T16:41:16.104Z,12.67
2023-04-09T16:45:18.174Z,12.50
2023-04-09T16:49:20.312Z,12.38
2023-04-09T16:53:22.298Z,12.33
2023-04-09T16:57:25.477Z,12.24
2023-04-09T17:01:27.823Z,12.18
2023-04-09T17:05:30.132Z,12.11
2023-04-09T17:09:32.133Z,12.08
2023-04-09T17:13:35.824Z,12.01
2023-04-09T17:17:38.149Z,11.89
2023-04-09T17:21:40.776Z,11.79
2023-04-09T17:25:42.801Z,11.71
2023-04-09T17:29:44.938Z,11.65
2023-04-09T17:33:48.035Z,11.54
2023-04-09T17:37:50.832Z,11.39
2023-04-09T17:41:53.595Z,11.26
2023-04-09T17:45:55.736Z,11.15
2023-04-09T17:49:57.745Z,11.00
2023-04-09T17:53:59.747Z,10.77
2023-04-09T17:58:01.757Z,10.61
2023-04-09T18:02:04.056Z,10.47
2023-04-09T18:06:07.046Z,10.32
2023-04-09T18:10:09.504Z,10.14
2023-04-09T18:14:11.961Z,9.90
2023-04-09T18:18:14.113Z,9.72
2023-04-09T18:22:16.585Z,9.58
2023-04-09T18:26:18.610Z,9.44
2023-04-09T18:30:20.671Z,9.23
2023-04-09T18:34:23.710Z,9.11
2023-04-09T18:38:28.492Z,8.91
2023-04-09T18:42:30.794Z,8.69
2023-04-09T18:46:32.953Z,8.48
2023-04-09T18:50:35.414Z,8.30
2023-04-09T18:54:38.529Z,8.18
2023-04-09T18:58:40.962Z,8.08
2023-04-09T19:02:43.218Z,8.01
2023-04-09T19:06:47.325Z,7.96
2023-04-09T19:10:49.569Z,7.89
2023-04-09T19:14:51.644Z,7.86
2023-04-09T19:18:53.812Z,7.89
2023-04-09T19:22:57.250Z,7.88
2023-04-09T19:27:01.121Z,7.72
2023-04-09T19:31:06.297Z,7.59
2023-04-09T19:35:08.533Z,7.44
2023-04-09T19:39:11.061Z,7.18
2023-04-09T19:43:13.400Z,7.06
2023-04-09T19:47:15.543Z,6.92
2023-04-09T19:51:18.442Z,6.77
2023-04-09T19:55:20.553Z,6.66
2023-04-09T19:59:22.601Z,6.65
2023-04-09T20:03:24.819Z,6.40
2023-04-09T20:07:27.185Z,6.24
2023-04-09T20:11:29.199Z,6.20
2023-04-09T20:15:31.419Z,6.17
2023-04-09T20:19:33.417Z,5.96
2023-04-09T20:23:35.696Z,5.63
2023-04-09T20:27:38.025Z,5.53
2023-04-09T20:31:40.249Z,5.32
2023-04-09T20:35:42.456Z,5.06
2023-04-09T20:39:44.988Z,4.99
2023-04-09T20:43:47.036Z,5.02
2023-04-09T20:47:50.029Z,5.03
2023-04-09T20:51:52.070Z,5.02
2023-04-09T20:55:54.893Z,4.93
2023-04-09T20:59:56.899Z,4.91
2023-04-09T21:03:59.014Z,4.81
2023-04-09T21:08:01.172Z,4.67
2023-04-09T21:12:03.237Z,4.65
2023-04-09T21:16:08.387Z,4.54
2023-04-09T21:20:11.327Z,4.54
2023-04-09T21:24:13.712Z,4.54
2023-04-09T21:28:15.816Z,4.43
2023-04-09T21:32:17.945Z,4.29
2023-04-09T21:36:20.210Z,4.27
2023-04-09T21:40:23.284Z,4.13
2023-04-09T21:44:25.395Z,3.90
2023-04-09T21:48:28.955Z,3.89
2023-04-09T21:52:31.147Z,3.86
2023-04-09T21:56:33.707Z,3.77
2023-04-09T22:00:36.014Z,3.66
2023-04-09T22:04:38.151Z,3.56
2023-04-09T22:08:54.975Z,3.49
2023-04-09T22:12:57.946Z,3.53
2023-04-09T22:17:01.596Z,3.59
2023-04-09T22:21:04.463Z,3.60
2023-04-09T22:25:07.009Z,3.59
2023-04-09T22:29:09.081Z,3.49
2023-04-09T22:33:11.283Z,3.40
2023-04-09T22:37:13.291Z,3.40
2023-04-09T22:41:17.419Z,3.36
2023-04-09T22:45:19.534Z,3.28
2023-04-09T22:49:23.590Z,3.18
2023-04-09T22:53:25.742Z,2.99
2023-04-09T22:57:27.762Z,2.88
2023-04-09T23:01:29.831Z,2.80
2023-04-09T23:05:31.870Z,2.85
2023-04-09T23:09:33.966Z,2.84
2023-04-09T23:13:36.044Z,2.94
2023-04-09T23:17:38.137Z,2.98
2023-04-09T23:21:40.185Z,2.90
2023-04-09T23:25:42.493Z,2.80
2023-04-09T23:29:44.583Z,2.76
2023-04-09T23:33:46.632Z,2.67
2023-04-09T23:37:51.293Z,2.69
2023-04-09T23:41:53.277Z,2.57
2023-04-09T23:45:55.382Z,2.51
2023-04-09T23:49:57.889Z,2.55
2023-04-09T23:54:01.331Z,2.63
2023-04-09T23:58:04.982Z,2.65
